createdAt,value
2019-01-20T00:03:16.242Z,301.6
2019-01-20T00:08:25.449Z,301.2
2019-01-20T00:13:34.757Z,301.3
2019-01-20T00:18:43.880Z,301.2
2019-01-20T00:23:53.145Z,300.6
2019-01-20T00:29:02.322Z,301.2
2019-01-20T00:34:11.674Z,300.7
2019-01-20T00:39:20.942Z,301.4
2019-01-20T00:44:30.156Z,301.1
2019-01-20T00:49:39.431Z,301.3
2019-01-20T00:54:48.717Z,301.2
2019-01-20T00:59:58.070Z,301.3
2019-01-20T01:05:07.450Z,301
2019-01-20T01:10:16.707Z,301.4
2019-01-20T01:15:26.783Z,301.2
2019-01-20T01:25:44.762Z,301.6
2019-01-20T01:30:54.105Z,301.7
2019-01-20T01:36:03.307Z,301.5
2019-01-20T01:51:31.214Z,301.2
2019-01-20T01:56:40.442Z,301
2019-01-20T02:01:49.781Z,301.5
2019-01-20T02:06:59.014Z,301.6
2019-01-20T02:12:08.299Z,301.2
2019-01-20T02:17:17.629Z,301.2
2019-01-20T02:22:26.953Z,301.1
2019-01-20T02:27:36.386Z,301.1
2019-01-20T02:32:45.750Z,301.1
2019-01-20T02:37:55.042Z,301.1
2019-01-20T02:43:04.434Z,301.1
2019-01-20T02:48:13.747Z,301.2
2019-01-20T02:53:23.236Z,301
2019-01-20T02:58:32.525Z,301.3
2019-01-20T03:14:00.641Z,301.1
2019-01-20T03:19:10.059Z,301.2
2019-01-20T03:34:38.393Z,301.1
2019-01-20T03:39:47.746Z,301.1
2019-01-20T03:44:57.266Z,301
2019-01-20T03:50:06.731Z,301.2
2019-01-20T03:55:16.114Z,300.9
2019-01-20T04:00:25.588Z,301.2
2019-01-20T04:05:35.171Z,301.1
2019-01-20T04:15:53.906Z,300.7
2019-01-20T04:26:12.823Z,301.1
2019-01-20T04:31:22.343Z,300.9
2019-01-20T04:36:31.751Z,301.1
2019-01-20T04:41:41.143Z,301
2019-01-20T04:57:09.670Z,301
2019-01-20T05:02:19.053Z,300.7
2019-01-20T05:22:56.850Z,301.1
2019-01-20T05:28:06.334Z,301.2
2019-01-20T05:33:15.831Z,301
2019-01-20T05:43:34.836Z,300.7
2019-01-20T05:48:44.359Z,300.6
2019-01-20T06:04:12.808Z,301.1
2019-01-20T06:09:22.278Z,301.2
2019-01-20T06:40:19.367Z,300.9
2019-01-20T06:45:28.901Z,301
2019-01-20T06:50:38.365Z,301.1
2019-01-20T07:00:57.421Z,301.2
2019-01-20T07:06:07.042Z,301.3
2019-01-20T07:11:16.502Z,301.5
2019-01-20T07:16:25.992Z,301.3
2019-01-20T07:21:35.510Z,301.3
2019-01-20T07:26:45.096Z,301.1
2019-01-20T07:31:56.096Z,300.9
2019-01-20T07:37:04.187Z,300.9
2019-01-20T07:42:13.616Z,301.1
2019-01-20T07:47:23.070Z,301
2019-01-20T07:52:34.829Z,301.2
2019-01-20T08:02:51.404Z,301
2019-01-20T08:08:00.866Z,301
2019-01-20T08:18:19.705Z,301.1
2019-01-20T08:23:29.161Z,301.2
2019-01-20T08:28:38.545Z,301.4
2019-01-20T08:38:56.909Z,301.1
2019-01-20T08:44:06.200Z,301.4
2019-01-20T08:49:15.270Z,301.3
2019-01-20T08:54:24.426Z,301.1
2019-01-20T08:59:33.627Z,301.3
2019-01-20T09:09:51.694Z,301.4
2019-01-20T09:15:00.735Z,301.3
2019-01-20T09:20:09.817Z,302.9
2019-01-20T09:25:18.764Z,301.5
2019-01-20T09:30:27.557Z,301.4
2019-01-20T09:35:36.346Z,301.4
2019-01-20T09:51:02.092Z,301.1
2019-01-20T10:06:26.922Z,301.8
2019-01-20T10:11:35.107Z,301.3
2019-01-20T10:21:51.327Z,301.2
2019-01-20T10:26:59.366Z,301.4
2019-01-20T10:42:22.892Z,301.4
2019-01-20T10:47:30.539Z,301.1
2019-01-20T10:57:45.984Z,301
2019-01-20T11:08:01.543Z,301.5
2019-01-20T11:18:16.461Z,302.1
2019-01-20T11:23:23.814Z,303
2019-01-20T11:28:31.450Z,301.7
2019-01-20T11:33:38.805Z,301.1
2019-01-20T11:49:01.209Z,301
2019-01-20T12:04:23.342Z,302.6
2019-01-20T12:09:30.733Z,301.4
2019-01-20T12:14:41.596Z,301.1
2019-01-20T12:40:15.297Z,301.4
2019-01-20T12:45:22.694Z,302
2019-01-20T12:50:30.231Z,301.6
2019-01-20T12:55:37.699Z,301.5
2019-01-20T13:00:45.165Z,301.4
2019-01-20T13:05:52.545Z,301.9
2019-01-20T13:11:00.044Z,302.2
2019-01-20T13:31:30.059Z,301.6
2019-01-20T13:46:52.726Z,302.9
2019-01-20T13:52:00.287Z,301
2019-01-20T14:07:23.025Z,301.3
2019-01-20T14:12:30.782Z,301.2
2019-01-20T14:17:38.350Z,301.9
2019-01-20T14:22:46.147Z,301.5
2019-01-20T14:33:01.669Z,301.5
2019-01-20T14:43:17.189Z,302
2019-01-20T14:58:40.890Z,302.2
2019-01-20T15:08:56.831Z,302.1
2019-01-20T15:14:04.801Z,301.4
2019-01-20T15:24:20.822Z,302.2
2019-01-20T15:34:37.104Z,302
2019-01-20T15:39:45.201Z,301.7
2019-01-20T15:44:53.508Z,302
2019-01-20T15:50:01.743Z,301.6
2019-01-20T15:55:10.155Z,301.7
2019-01-20T16:00:18.676Z,301.6
2019-01-20T16:05:26.948Z,301.3
2019-01-20T16:10:35.414Z,302.1
2019-01-20T16:15:43.894Z,302.6
2019-01-20T16:26:00.953Z,302.4
2019-01-20T16:41:26.537Z,302.5
2019-01-20T16:56:52.509Z,301.6
2019-01-20T17:07:09.890Z,301.8
2019-01-20T17:12:18.722Z,301.7
2019-01-20T17:17:27.469Z,301.8
2019-01-20T17:22:36.304Z,302.3
2019-01-20T17:32:53.912Z,302.1
2019-01-20T17:38:02.695Z,302.8
2019-01-20T17:48:22.498Z,301.8
2019-01-20T17:53:29.287Z,301.6
2019-01-20T17:58:38.184Z,302.1
2019-01-20T18:03:47.123Z,302.1
2019-01-20T18:08:55.961Z,301.9
2019-01-20T18:14:04.919Z,302.5
2019-01-20T18:19:13.862Z,302.5
2019-01-20T18:44:58.737Z,303.1
2019-01-20T18:55:16.749Z,302.7
2019-01-20T19:05:36.531Z,303.5
2019-01-20T19:10:43.825Z,303
2019-01-20T19:15:52.961Z,301.7
2019-01-20T19:21:01.985Z,302.1
2019-01-20T19:26:11.072Z,302.8
2019-01-20T19:31:20.080Z,303.1
2019-01-20T19:36:29.307Z,302.7
2019-01-20T19:41:38.336Z,302.6
2019-01-20T19:46:47.642Z,302.9
2019-01-20T19:51:56.722Z,303.1
2019-01-20T19:57:05.863Z,303.1
2019-01-20T20:02:14.987Z,303.3
2019-01-20T20:07:28.430Z,303.1
2019-01-20T20:22:51.734Z,302
2019-01-20T20:28:00.954Z,303.5
2019-01-20T20:38:19.514Z,303.6
2019-01-20T20:43:28.678Z,308
2019-01-20T20:53:47.205Z,303.7
2019-01-20T21:14:24.399Z,303.6
2019-01-20T21:19:33.761Z,303
2019-01-20T21:24:43.094Z,305.1
2019-01-20T21:29:52.549Z,303.9
2019-01-20T21:35:01.842Z,304.2
2019-01-20T21:45:20.391Z,304.1
2019-01-20T21:50:29.761Z,304.1
2019-01-20T22:05:57.825Z,304.2
2019-01-20T22:11:07.091Z,304.2
2019-01-20T22:21:25.803Z,304.1
2019-01-20T22:26:35.275Z,302.2
2019-01-20T22:31:44.600Z,303.9
2019-01-20T22:36:54.038Z,304.2
2019-01-20T22:42:03.432Z,302.7
2019-01-20T22:47:12.767Z,304.3
2019-01-20T22:52:22.158Z,303.9
2019-01-20T22:57:31.683Z,304.6
2019-01-20T23:12:59.985Z,304.2
2019-01-20T23:18:09.283Z,302.8
2019-01-20T23:23:18.720Z,302.8
2019-01-20T23:28:28.218Z,304.2
2019-01-20T23:33:37.574Z,304.4
2019-01-20T23:43:56.438Z,304.4
2019-01-20T23:49:05.863Z,304.5
2019-01-20T23:54:15.407Z,304.7
